Terminal Aerodrome Forecast
Issued by NWS Missoula, MT

Home | Current Version | Previous Version | Text Only | Print | Product List | Glossary On
Versions: 1 2 3 4 5 6 7 8 9 10 11 12 13 14 15 16 17 18 19 20
000
FTUS45 KMSO 300537
TAFBTM
TAF
KBTM 300537Z 3006/3106 VRB06KT 3SM FU VCSH BKN100
     FM300900 21020G30KT 5SM SHRA HZ VCTS SCT070CB OVC080
     FM301200 VRB06KT P6SM SCT080
     FM301700 21014G24KT P6SM VCSH BKN100=

USA.gov is the U.S. government's official web portal to all federal, state and local government web resources and services.